PWSweather.com
Personal Weather Stations
Station Observations
COONRAPIDS
Minneapolis, MN 55433

Minneapolis, MN 55433

Lat: 45.187721, Lon: -93.36828

Elevation: 898

Station Type: Davis Vantage Pro 2

High Low Average
Temperature 35.8°F2.1°C -0.9°F-18.3°C 13.6°F-10.2°C
Dew Point 33.1°F0.6°C -8.9°F-22.7°C 7.9°F-13.4°C
Winds 9.2 mph 14.8 kmh Calm Calm 3.0 mph NW4.8 kmh NW
Wind Gusts 17.3 mph27.8 kmh -- 6.0 mph9.7 kmh
Humidity 90% 67% 78%
Pressure 30.35 in1027.8 mb 29.55 in1000.7 mb -
Precipitation 0.00 in0.0 mm - -
Hour Temp Dew Point Humidity Winds Wind Gusts Pressure Precip Precip Rate Daily Precip Total
12:00 AM 35.5°F1.9°C 32.9°F0.5°C 90% Calm Calm -- 29.54 in1000.3 mb - 0.00 in0.0 mm 0.01 in0.3 mm
12:10 AM 35.4°F1.9°C 32.8°F0.4°C 90% Calm Calm -- 29.54 in1000.3 mb - 0.00 in0.0 mm 0.01 in0.3 mm
12:20 AM 35.3°F1.8°C 32.7°F0.4°C 90% Calm Calm -- 29.54 in1000.3 mb - 0.00 in0.0 mm 0.01 in0.3 mm
12:30 AM 35.2°F1.8°C 32.6°F0.3°C 90% Calm Calm -- 29.54 in1000.3 mb - 0.00 in0.0 mm 0.01 in0.3 mm
12:40 AM 35.3°F1.8°C 32.7°F0.4°C 90% Calm Calm -- 29.55 in1000.7 mb - 0.00 in0.0 mm 0.01 in0.3 mm
12:50 AM 35.5°F1.9°C 32.9°F0.5°C 90% Calm Calm -- 29.55 in1000.7 mb - 0.00 in0.0 mm 0.01 in0.3 mm
01:00 AM 35.6°F2.0°C 33.0°F0.6°C 90% Calm Calm -- 29.55 in1000.7 mb - 0.00 in0.0 mm 0.00 in0.0 mm
01:10 AM 35.6°F2.0°C 33.0°F0.6°C 90% Calm Calm -- 29.55 in1000.7 mb - 0.00 in0.0 mm 0.00 in0.0 mm
01:20 AM 35.6°F2.0°C 33.0°F0.6°C 90% Calm Calm -- 29.55 in1000.7 mb - 0.00 in0.0 mm 0.00 in0.0 mm
01:30 AM 35.5°F1.9°C 32.9°F0.5°C 90% Calm Calm -- 29.55 in1000.7 mb - 0.00 in0.0 mm 0.00 in0.0 mm
01:40 AM 35.5°F1.9°C 32.9°F0.5°C 90% Calm Calm 2.3 mph3.7 kmh 29.55 in1000.7 mb - 0.00 in0.0 mm 0.00 in0.0 mm
01:50 AM 35.6°F2.0°C 33.0°F0.6°C 90% Calm Calm 1.2 mph1.9 kmh 29.56 in1001.0 mb - 0.00 in0.0 mm 0.00 in0.0 mm
02:00 AM 35.7°F2.1°C 33.1°F0.6°C 90% 1.2 mph S1.9 kmh S 2.3 mph3.7 kmh 29.55 in1000.7 mb - 0.00 in0.0 mm 0.00 in0.0 mm
02:10 AM 35.8°F2.1°C 33.1°F0.6°C 90% Calm Calm 3.5 mph5.6 kmh 29.55 in1000.7 mb - 0.00 in0.0 mm 0.00 in0.0 mm
02:20 AM 35.7°F2.1°C 33.1°F0.6°C 90% Calm Calm 4.6 mph7.4 kmh 29.56 in1001.0 mb - 0.00 in0.0 mm 0.00 in0.0 mm
02:30 AM 35.6°F2.0°C 33.0°F0.6°C 90% 2.3 mph W3.7 kmh W 9.2 mph14.8 kmh 29.57 in1001.4 mb - 0.00 in0.0 mm 0.00 in0.0 mm
02:40 AM 35.0°F1.7°C 32.4°F0.2°C 90% 2.3 mph W3.7 kmh W 6.9 mph11.1 kmh 29.56 in1001.0 mb - 0.00 in0.0 mm 0.00 in0.0 mm
02:50 AM 33.8°F1.0°C 31.2°F-0.4°C 90% 2.3 mph NW3.7 kmh NW 8.1 mph13.0 kmh 29.56 in1001.0 mb - 0.00 in0.0 mm 0.00 in0.0 mm
03:00 AM 33.1°F0.6°C 30.5°F-0.8°C 90% Calm Calm -- 29.56 in1001.0 mb - 0.00 in0.0 mm 0.00 in0.0 mm
03:10 AM 32.9°F0.5°C 30.3°F-0.9°C 90% 1.2 mph WSW1.9 kmh WSW 5.8 mph9.3 kmh 29.58 in1001.7 mb - 0.00 in0.0 mm 0.00 in0.0 mm
03:20 AM 32.6°F0.3°C 30.0°F-1.1°C 90% 2.3 mph W3.7 kmh W 5.8 mph9.3 kmh 29.59 in1002.0 mb - 0.00 in0.0 mm 0.00 in0.0 mm
03:30 AM 32.2°F0.1°C 29.3°F-1.5°C 89% 1.2 mph W1.9 kmh W 3.5 mph5.6 kmh 29.60 in1002.4 mb - 0.00 in0.0 mm 0.00 in0.0 mm
03:40 AM 31.5°F-0.3°C 28.6°F-1.9°C 89% 1.2 mph W1.9 kmh W 6.9 mph11.1 kmh 29.61 in1002.7 mb - 0.00 in0.0 mm 0.00 in0.0 mm
03:50 AM 31.1°F-0.5°C 28.2°F-2.1°C 89% 2.3 mph NW3.7 kmh NW 6.9 mph11.1 kmh 29.61 in1002.7 mb - 0.00 in0.0 mm 0.00 in0.0 mm
04:00 AM 30.2°F-1.0°C 27.3°F-2.6°C 89% 4.6 mph W7.4 kmh W 4.6 mph7.4 kmh 29.62 in1003.0 mb - 0.00 in0.0 mm 0.00 in0.0 mm
04:10 AM 29.2°F-1.6°C 26.4°F-3.1°C 89% 3.5 mph NW5.6 kmh NW 5.8 mph9.3 kmh 29.63 in1003.4 mb - 0.00 in0.0 mm 0.00 in0.0 mm
04:20 AM 28.6°F-1.9°C 25.8°F-3.4°C 89% 3.5 mph WSW5.6 kmh WSW 5.8 mph9.3 kmh 29.63 in1003.4 mb - 0.00 in0.0 mm 0.00 in0.0 mm
04:30 AM 28.1°F-2.2°C 25.3°F-3.7°C 89% 1.2 mph W1.9 kmh W -- 29.64 in1003.7 mb - 0.00 in0.0 mm 0.00 in0.0 mm
04:40 AM 27.6°F-2.4°C 24.8°F-4.0°C 89% 2.3 mph NW3.7 kmh NW 3.5 mph5.6 kmh 29.65 in1004.1 mb - 0.00 in0.0 mm 0.00 in0.0 mm
04:50 AM 26.7°F-2.9°C 23.7°F-4.6°C 88% 2.3 mph NW3.7 kmh NW 5.8 mph9.3 kmh 29.66 in1004.4 mb - 0.00 in0.0 mm 0.00 in0.0 mm
05:00 AM 26.0°F-3.3°C 22.9°F-5.1°C 88% 3.5 mph WNW5.6 kmh WNW 5.8 mph9.3 kmh 29.66 in1004.4 mb - 0.00 in0.0 mm 0.00 in0.0 mm
05:10 AM 25.3°F-3.7°C 22.2°F-5.4°C 88% 4.6 mph WNW7.4 kmh WNW 8.1 mph13.0 kmh 29.65 in1004.1 mb - 0.00 in0.0 mm 0.00 in0.0 mm
05:20 AM 24.8°F-4.0°C 21.8°F-5.7°C 88% 2.3 mph NW3.7 kmh NW 4.6 mph7.4 kmh 29.66 in1004.4 mb - 0.00 in0.0 mm 0.00 in0.0 mm
05:30 AM 24.3°F-4.3°C 21.0°F-6.1°C 87% 2.3 mph NW3.7 kmh NW 5.8 mph9.3 kmh 29.66 in1004.4 mb - 0.00 in0.0 mm 0.00 in0.0 mm
05:40 AM 24.0°F-4.4°C 21.0°F-6.1°C 88% 2.3 mph NW3.7 kmh NW 13.8 mph22.2 kmh 29.67 in1004.7 mb - 0.00 in0.0 mm 0.00 in0.0 mm
05:50 AM 23.2°F-4.9°C 19.9°F-6.7°C 87% 3.5 mph NW5.6 kmh NW 10.4 mph16.7 kmh 29.67 in1004.7 mb - 0.00 in0.0 mm 0.00 in0.0 mm
06:00 AM 22.1°F-5.5°C 18.8°F-7.3°C 87% 2.3 mph NW3.7 kmh NW 8.1 mph13.0 kmh 29.68 in1005.1 mb - 0.00 in0.0 mm 0.00 in0.0 mm
06:10 AM 21.5°F-5.8°C 18.0°F-7.8°C 86% 4.6 mph W7.4 kmh W 8.1 mph13.0 kmh 29.68 in1005.1 mb - 0.00 in0.0 mm 0.00 in0.0 mm
06:20 AM 20.6°F-6.3°C 16.8°F-8.4°C 85% 4.6 mph NW7.4 kmh NW 11.5 mph18.5 kmh 29.70 in1005.8 mb - 0.00 in0.0 mm 0.00 in0.0 mm
06:30 AM 20.0°F-6.7°C 16.2°F-8.8°C 85% 4.6 mph WNW7.4 kmh WNW 9.2 mph14.8 kmh 29.70 in1005.8 mb - 0.00 in0.0 mm 0.00 in0.0 mm
06:40 AM 19.5°F-6.9°C 15.5°F-9.2°C 84% 3.5 mph NNW5.6 kmh NNW 6.9 mph11.1 kmh 29.71 in1006.1 mb - 0.00 in0.0 mm 0.00 in0.0 mm
06:50 AM 18.5°F-7.5°C 13.9°F-10.1°C 82% 6.9 mph W11.1 kmh W 15.0 mph24.1 kmh 29.72 in1006.4 mb - 0.00 in0.0 mm 0.00 in0.0 mm
07:00 AM 17.7°F-7.9°C 12.8°F-10.7°C 81% 2.3 mph WNW3.7 kmh WNW 8.1 mph13.0 kmh 29.73 in1006.8 mb - 0.00 in0.0 mm 0.00 in0.0 mm
07:10 AM 17.3°F-8.2°C 12.5°F-10.8°C 81% 3.5 mph NW5.6 kmh NW 10.4 mph16.7 kmh 29.73 in1006.8 mb - 0.00 in0.0 mm 0.00 in0.0 mm
07:20 AM 17.1°F-8.3°C 12.3°F-10.9°C 81% 3.5 mph NW5.6 kmh NW 8.1 mph13.0 kmh 29.74 in1007.1 mb - 0.00 in0.0 mm 0.00 in0.0 mm
07:30 AM 16.7°F-8.5°C 11.6°F-11.3°C 80% 2.3 mph NW3.7 kmh NW 8.1 mph13.0 kmh 29.74 in1007.1 mb - 0.00 in0.0 mm 0.00 in0.0 mm
07:40 AM 16.2°F-8.8°C 11.1°F-11.6°C 80% 4.6 mph NW7.4 kmh NW 10.4 mph16.7 kmh 29.75 in1007.5 mb - 0.00 in0.0 mm 0.00 in0.0 mm
07:50 AM 15.5°F-9.2°C 10.1°F-12.2°C 79% 2.3 mph NW3.7 kmh NW 8.1 mph13.0 kmh 29.76 in1007.8 mb - 0.00 in0.0 mm 0.00 in0.0 mm
08:00 AM 15.0°F-9.4°C 9.4°F-12.6°C 78% 2.3 mph NW3.7 kmh NW 6.9 mph11.1 kmh 29.76 in1007.8 mb - 0.00 in0.0 mm 0.00 in0.0 mm
08:10 AM 14.8°F-9.6°C 9.5°F-12.5°C 79% 2.3 mph WNW3.7 kmh WNW 4.6 mph7.4 kmh 29.77 in1008.1 mb - 0.00 in0.0 mm 0.00 in0.0 mm
08:20 AM 14.3°F-9.8°C 9.0°F-12.8°C 79% 2.3 mph NW3.7 kmh NW 5.8 mph9.3 kmh 29.77 in1008.1 mb - 0.00 in0.0 mm 0.00 in0.0 mm
08:30 AM 14.0°F-10.0°C 8.7°F-12.9°C 79% 4.6 mph WNW7.4 kmh WNW 11.5 mph18.5 kmh 29.79 in1008.8 mb - 0.00 in0.0 mm 0.00 in0.0 mm
08:40 AM 13.5°F-10.3°C 7.6°F-13.6°C 77% 5.8 mph NW9.3 kmh NW 11.5 mph18.5 kmh 29.79 in1008.8 mb - 0.00 in0.0 mm 0.00 in0.0 mm
08:50 AM 13.4°F-10.3°C 7.8°F-13.4°C 78% 2.3 mph NW3.7 kmh NW 5.8 mph9.3 kmh 29.79 in1008.8 mb - 0.00 in0.0 mm 0.00 in0.0 mm
09:00 AM 13.0°F-10.6°C 7.4°F-13.7°C 78% 4.6 mph NW7.4 kmh NW 15.0 mph24.1 kmh 29.80 in1009.1 mb - 0.00 in0.0 mm 0.00 in0.0 mm
09:10 AM 12.6°F-10.8°C 7.1°F-13.8°C 78% 5.8 mph NW9.3 kmh NW 6.9 mph11.1 kmh 29.80 in1009.1 mb - 0.00 in0.0 mm 0.00 in0.0 mm
09:20 AM 12.6°F-10.8°C 7.0°F-13.9°C 78% 3.5 mph NNW5.6 kmh NNW 4.6 mph7.4 kmh 29.81 in1009.5 mb - 0.00 in0.0 mm 0.00 in0.0 mm
09:30 AM 12.3°F-10.9°C 7.0°F-13.9°C 79% 4.6 mph NNW7.4 kmh NNW 6.9 mph11.1 kmh 29.82 in1009.8 mb - 0.00 in0.0 mm 0.00 in0.0 mm
09:40 AM 11.4°F-11.4°C 6.2°F-14.3°C 79% 3.5 mph NW5.6 kmh NW 8.1 mph13.0 kmh 29.82 in1009.8 mb - 0.00 in0.0 mm 0.00 in0.0 mm
09:50 AM 11.4°F-11.4°C 6.4°F-14.2°C 80% Calm Calm 3.5 mph5.6 kmh 29.84 in1010.5 mb - 0.00 in0.0 mm 0.00 in0.0 mm
10:00 AM 11.3°F-11.5°C 6.6°F-14.1°C 81% 3.5 mph WNW5.6 kmh WNW 8.1 mph13.0 kmh 29.85 in1010.8 mb - 0.00 in0.0 mm 0.00 in0.0 mm
10:10 AM 11.0°F-11.7°C 6.0°F-14.4°C 80% 4.6 mph NW7.4 kmh NW 11.5 mph18.5 kmh 29.85 in1010.8 mb - 0.00 in0.0 mm 0.00 in0.0 mm
10:20 AM 10.7°F-11.8°C 5.8°F-14.6°C 80% 2.3 mph NW3.7 kmh NW 6.9 mph11.1 kmh 29.86 in1011.2 mb - 0.00 in0.0 mm 0.00 in0.0 mm
10:30 AM 10.7°F-11.8°C 5.7°F-14.6°C 80% 2.3 mph NW3.7 kmh NW 5.8 mph9.3 kmh 29.87 in1011.5 mb - 0.00 in0.0 mm 0.00 in0.0 mm
10:40 AM 10.5°F-11.9°C 5.5°F-14.7°C 80% Calm Calm 3.5 mph5.6 kmh 29.87 in1011.5 mb - 0.00 in0.0 mm 0.00 in0.0 mm
10:50 AM 10.5°F-11.9°C 5.5°F-14.7°C 80% 3.5 mph NW5.6 kmh NW 11.5 mph18.5 kmh 29.88 in1011.9 mb - 0.00 in0.0 mm 0.00 in0.0 mm
11:00 AM 10.3°F-12.1°C 5.1°F-14.9°C 79% 4.6 mph NW7.4 kmh NW 8.1 mph13.0 kmh 29.88 in1011.9 mb - 0.00 in0.0 mm 0.00 in0.0 mm
11:10 AM 10.1°F-12.2°C 4.9°F-15.1°C 79% 5.8 mph NW9.3 kmh NW 11.5 mph18.5 kmh 29.89 in1012.2 mb - 0.00 in0.0 mm 0.00 in0.0 mm
11:20 AM 10.1°F-12.2°C 4.9°F-15.1°C 79% 1.2 mph NW1.9 kmh NW 3.5 mph5.6 kmh 29.89 in1012.2 mb - 0.00 in0.0 mm 0.00 in0.0 mm
11:30 AM 10.3°F-12.1°C 5.1°F-14.9°C 79% 3.5 mph NW5.6 kmh NW 5.8 mph9.3 kmh 29.90 in1012.5 mb - 0.00 in0.0 mm 0.00 in0.0 mm
11:40 AM 10.1°F-12.2°C 4.6°F-15.2°C 78% 5.8 mph NNW9.3 kmh NNW 15.0 mph24.1 kmh 29.90 in1012.5 mb - 0.00 in0.0 mm 0.00 in0.0 mm
11:50 AM 10.1°F-12.2°C 4.3°F-15.4°C 77% 3.5 mph NNW5.6 kmh NNW 5.8 mph9.3 kmh 29.91 in1012.9 mb - 0.00 in0.0 mm 0.00 in0.0 mm
12:00 PM 10.1°F-12.2°C 4.6°F-15.2°C 78% 5.8 mph NNW9.3 kmh NNW 11.5 mph18.5 kmh 29.91 in1012.9 mb - 0.00 in0.0 mm 0.00 in0.0 mm
12:10 PM 9.8°F-12.3°C 4.3°F-15.4°C 78% 2.3 mph NW3.7 kmh NW 5.8 mph9.3 kmh 29.91 in1012.9 mb - 0.00 in0.0 mm 0.00 in0.0 mm
12:20 PM 9.8°F-12.3°C 4.3°F-15.4°C 78% 4.6 mph NW7.4 kmh NW 10.4 mph16.7 kmh 29.90 in1012.5 mb - 0.00 in0.0 mm 0.00 in0.0 mm
12:30 PM 9.6°F-12.4°C 4.1°F-15.5°C 78% 2.3 mph NW3.7 kmh NW 5.8 mph9.3 kmh 29.90 in1012.5 mb - 0.00 in0.0 mm 0.00 in0.0 mm
12:40 PM 9.6°F-12.4°C 4.4°F-15.3°C 79% 3.5 mph NNW5.6 kmh NNW 8.1 mph13.0 kmh 29.91 in1012.9 mb - 0.00 in0.0 mm 0.00 in0.0 mm
12:50 PM 9.6°F-12.4°C 4.4°F-15.3°C 79% 2.3 mph NW3.7 kmh NW 3.5 mph5.6 kmh 29.92 in1013.2 mb - 0.00 in0.0 mm 0.00 in0.0 mm
01:00 PM 9.6°F-12.4°C 4.4°F-15.3°C 79% 1.2 mph N1.9 kmh N 3.5 mph5.6 kmh 29.94 in1013.9 mb - 0.00 in0.0 mm 0.00 in0.0 mm
01:10 PM 9.6°F-12.4°C 4.4°F-15.3°C 79% 3.5 mph NW5.6 kmh NW 15.0 mph24.1 kmh 29.92 in1013.2 mb - 0.00 in0.0 mm 0.00 in0.0 mm
01:20 PM 9.3°F-12.6°C 3.8°F-15.7°C 78% 3.5 mph NW5.6 kmh NW 5.8 mph9.3 kmh 29.91 in1012.9 mb - 0.00 in0.0 mm 0.00 in0.0 mm
01:30 PM 9.4°F-12.6°C 4.2°F-15.4°C 79% 3.5 mph NW5.6 kmh NW 12.7 mph20.4 kmh 29.92 in1013.2 mb - 0.00 in0.0 mm 0.00 in0.0 mm
01:40 PM 9.1°F-12.7°C 3.6°F-15.8°C 78% 2.3 mph NW3.7 kmh NW 5.8 mph9.3 kmh 29.92 in1013.2 mb - 0.00 in0.0 mm 0.00 in0.0 mm
01:50 PM 8.7°F-12.9°C 3.2°F-16.0°C 78% 2.3 mph N3.7 kmh N 3.5 mph5.6 kmh 29.94 in1013.9 mb - 0.00 in0.0 mm 0.00 in0.0 mm
02:00 PM 8.3°F-13.2°C 2.9°F-16.2°C 78% 3.5 mph NW5.6 kmh NW 4.6 mph7.4 kmh 29.95 in1014.2 mb - 0.00 in0.0 mm 0.00 in0.0 mm
02:10 PM 8.2°F-13.2°C 3.0°F-16.1°C 79% 3.5 mph WNW5.6 kmh WNW 10.4 mph16.7 kmh 29.96 in1014.6 mb - 0.00 in0.0 mm 0.00 in0.0 mm
02:20 PM 7.8°F-13.4°C 2.4°F-16.4°C 78% 4.6 mph NW7.4 kmh NW 10.4 mph16.7 kmh 29.96 in1014.6 mb - 0.00 in0.0 mm 0.00 in0.0 mm
02:30 PM 7.8°F-13.4°C 2.6°F-16.3°C 79% 3.5 mph NNW5.6 kmh NNW 5.8 mph9.3 kmh 29.97 in1014.9 mb - 0.00 in0.0 mm 0.00 in0.0 mm
02:40 PM 7.9°F-13.4°C 3.0°F-16.1°C 80% 1.2 mph NW1.9 kmh NW 4.6 mph7.4 kmh 29.97 in1014.9 mb - 0.00 in0.0 mm 0.00 in0.0 mm
02:50 PM 7.5°F-13.6°C 2.3°F-16.5°C 79% 4.6 mph NW7.4 kmh NW 17.3 mph27.8 kmh 29.97 in1014.9 mb - 0.00 in0.0 mm 0.00 in0.0 mm
03:00 PM 7.2°F-13.8°C 2.1°F-16.6°C 79% 3.5 mph N5.6 kmh N 5.8 mph9.3 kmh 29.98 in1015.2 mb - 0.00 in0.0 mm 0.00 in0.0 mm
03:10 PM 7.2°F-13.8°C 2.1°F-16.6°C 79% 4.6 mph NW7.4 kmh NW 12.7 mph20.4 kmh 29.98 in1015.2 mb - 0.00 in0.0 mm 0.00 in0.0 mm
03:20 PM 7.1°F-13.8°C 2.0°F-16.7°C 79% 4.6 mph NW7.4 kmh NW 12.7 mph20.4 kmh 29.99 in1015.6 mb - 0.00 in0.0 mm 0.00 in0.0 mm
03:30 PM 7.2°F-13.8°C 2.1°F-16.6°C 79% 2.3 mph NW3.7 kmh NW 3.5 mph5.6 kmh 29.99 in1015.6 mb - 0.00 in0.0 mm 0.00 in0.0 mm
03:40 PM 7.4°F-13.7°C 2.2°F-16.6°C 79% 4.6 mph NW7.4 kmh NW 8.1 mph13.0 kmh 30.00 in1015.9 mb - 0.00 in0.0 mm 0.00 in0.0 mm
03:50 PM 7.4°F-13.7°C 1.7°F-16.8°C 77% 2.3 mph NNW3.7 kmh NNW 6.9 mph11.1 kmh 30.00 in1015.9 mb - 0.00 in0.0 mm 0.00 in0.0 mm
04:00 PM 7.4°F-13.7°C 1.2°F-17.1°C 75% 3.5 mph NNW5.6 kmh NNW 4.6 mph7.4 kmh 30.01 in1016.3 mb - 0.00 in0.0 mm 0.00 in0.0 mm
04:10 PM 7.7°F-13.5°C 1.1°F-17.2°C 74% 8.1 mph N13.0 kmh N 9.2 mph14.8 kmh 30.01 in1016.3 mb - 0.00 in0.0 mm 0.00 in0.0 mm
04:20 PM 7.7°F-13.5°C 0.8°F-17.3°C 73% 3.5 mph NNW5.6 kmh NNW 10.4 mph16.7 kmh 30.02 in1016.6 mb - 0.00 in0.0 mm 0.00 in0.0 mm
04:30 PM 7.8°F-13.4°C 0.9°F-17.3°C 73% 9.2 mph NNW14.8 kmh NNW 10.4 mph16.7 kmh 30.02 in1016.6 mb - 0.00 in0.0 mm 0.00 in0.0 mm
04:40 PM 7.7°F-13.5°C 0.5°F-17.5°C 72% 3.5 mph N5.6 kmh N 4.6 mph7.4 kmh 30.03 in1016.9 mb - 0.00 in0.0 mm 0.00 in0.0 mm
04:50 PM 7.7°F-13.5°C 0.5°F-17.5°C 72% 2.3 mph NNW3.7 kmh NNW 4.6 mph7.4 kmh 30.04 in1017.3 mb - 0.00 in0.0 mm 0.00 in0.0 mm
05:00 PM 7.8°F-13.4°C 0.6°F-17.4°C 72% 1.2 mph NW1.9 kmh NW 8.1 mph13.0 kmh 30.05 in1017.6 mb - 0.00 in0.0 mm 0.00 in0.0 mm
05:10 PM 7.8°F-13.4°C 0.6°F-17.4°C 72% 2.3 mph NW3.7 kmh NW 4.6 mph7.4 kmh 30.06 in1017.9 mb - 0.00 in0.0 mm 0.00 in0.0 mm
05:20 PM 8.0°F-13.3°C 0.8°F-17.3°C 72% 4.6 mph N7.4 kmh N 4.6 mph7.4 kmh 30.07 in1018.3 mb - 0.00 in0.0 mm 0.00 in0.0 mm
05:30 PM 8.2°F-13.2°C 1.0°F-17.2°C 72% 4.6 mph NNW7.4 kmh NNW 8.1 mph13.0 kmh 30.08 in1018.6 mb - 0.00 in0.0 mm 0.00 in0.0 mm
05:40 PM 8.2°F-13.2°C 0.4°F-17.6°C 70% 4.6 mph N7.4 kmh N 8.1 mph13.0 kmh 30.08 in1018.6 mb - 0.00 in0.0 mm 0.00 in0.0 mm
05:50 PM 8.3°F-13.2°C 0.5°F-17.5°C 70% 1.2 mph NNW1.9 kmh NNW 1.2 mph1.9 kmh 30.09 in1019.0 mb - 0.00 in0.0 mm 0.00 in0.0 mm
06:00 PM 8.4°F-13.1°C 0.6°F-17.4°C 70% 4.6 mph N7.4 kmh N 6.9 mph11.1 kmh 30.10 in1019.3 mb - 0.00 in0.0 mm 0.00 in0.0 mm
06:10 PM 8.3°F-13.2°C 0.5°F-17.5°C 70% 1.2 mph NNW1.9 kmh NNW 3.5 mph5.6 kmh 30.11 in1019.6 mb - 0.00 in0.0 mm 0.00 in0.0 mm
06:20 PM 8.4°F-13.1°C 0.6°F-17.4°C 70% 2.3 mph NW3.7 kmh NW 3.5 mph5.6 kmh 30.12 in1020.0 mb - 0.00 in0.0 mm 0.00 in0.0 mm
06:30 PM 8.5°F-13.1°C 0.7°F-17.4°C 70% 1.2 mph NNW1.9 kmh NNW -- 30.13 in1020.3 mb - 0.00 in0.0 mm 0.00 in0.0 mm
06:40 PM 8.5°F-13.1°C 0.4°F-17.6°C 69% 4.6 mph NNW7.4 kmh NNW 9.2 mph14.8 kmh 30.14 in1020.7 mb - 0.00 in0.0 mm 0.00 in0.0 mm
06:50 PM 8.3°F-13.2°C 0.2°F-17.7°C 69% 3.5 mph N5.6 kmh N 5.8 mph9.3 kmh 30.14 in1020.7 mb - 0.00 in0.0 mm 0.00 in0.0 mm
07:00 PM 8.1°F-13.3°C 0.3°F-17.6°C 70% 2.3 mph NNW3.7 kmh NNW 8.1 mph13.0 kmh 30.15 in1021.0 mb - 0.00 in0.0 mm 0.00 in0.0 mm
07:10 PM 8.1°F-13.3°C 0.0°F-17.8°C 69% 2.3 mph N3.7 kmh N 4.6 mph7.4 kmh 30.16 in1021.3 mb - 0.00 in0.0 mm 0.00 in0.0 mm
07:20 PM 8.0°F-13.3°C -0.1°F-17.8°C 69% 4.6 mph NNW7.4 kmh NNW 6.9 mph11.1 kmh 30.17 in1021.7 mb - 0.00 in0.0 mm 0.00 in0.0 mm
07:30 PM 7.8°F-13.4°C -0.2°F-17.9°C 69% 2.3 mph NNW3.7 kmh NNW 4.6 mph7.4 kmh 30.17 in1021.7 mb - 0.00 in0.0 mm 0.00 in0.0 mm
07:40 PM 7.7°F-13.5°C -0.4°F-18.0°C 69% 2.3 mph NNW3.7 kmh NNW 5.8 mph9.3 kmh 30.18 in1022.0 mb - 0.00 in0.0 mm 0.00 in0.0 mm
07:50 PM 7.5°F-13.6°C -0.6°F-18.1°C 69% 1.2 mph N1.9 kmh N 4.6 mph7.4 kmh 30.18 in1022.0 mb - 0.00 in0.0 mm 0.00 in0.0 mm
08:00 PM 7.5°F-13.6°C -0.6°F-18.1°C 69% 5.8 mph NW9.3 kmh NW 10.4 mph16.7 kmh 30.19 in1022.4 mb - 0.00 in0.0 mm 0.00 in0.0 mm
08:10 PM 7.5°F-13.6°C -0.9°F-18.3°C 68% 3.5 mph NNE5.6 kmh NNE 5.8 mph9.3 kmh 30.20 in1022.7 mb - 0.00 in0.0 mm 0.00 in0.0 mm
08:20 PM 7.4°F-13.7°C -1.0°F-18.3°C 68% 2.3 mph NW3.7 kmh NW 5.8 mph9.3 kmh 30.20 in1022.7 mb - 0.00 in0.0 mm 0.00 in0.0 mm
08:30 PM 7.3°F-13.7°C -1.4°F-18.6°C 67% 2.3 mph NNE3.7 kmh NNE 3.5 mph5.6 kmh 30.21 in1023.0 mb - 0.00 in0.0 mm 0.00 in0.0 mm
08:40 PM 7.1°F-13.8°C -1.2°F-18.4°C 68% Calm Calm -- 30.22 in1023.4 mb - 0.00 in0.0 mm 0.00 in0.0 mm
08:50 PM 6.9°F-13.9°C -1.5°F-18.6°C 68% 1.2 mph N1.9 kmh N 3.5 mph5.6 kmh 30.22 in1023.4 mb - 0.00 in0.0 mm 0.00 in0.0 mm
09:00 PM 6.7°F-14.1°C -1.6°F-18.7°C 68% 3.5 mph NW5.6 kmh NW 11.5 mph18.5 kmh 30.23 in1023.7 mb - 0.00 in0.0 mm 0.00 in0.0 mm
09:10 PM 6.4°F-14.2°C -1.9°F-18.8°C 68% 3.5 mph NNW5.6 kmh NNW 6.9 mph11.1 kmh 30.23 in1023.7 mb - 0.00 in0.0 mm 0.00 in0.0 mm
09:20 PM 6.1°F-14.4°C -2.2°F-19.0°C 68% 2.3 mph NW3.7 kmh NW 3.5 mph5.6 kmh 30.24 in1024.0 mb - 0.00 in0.0 mm 0.00 in0.0 mm
09:30 PM 5.9°F-14.5°C -2.4°F-19.1°C 68% 2.3 mph N3.7 kmh N 4.6 mph7.4 kmh 30.24 in1024.0 mb - 0.00 in0.0 mm 0.00 in0.0 mm
09:40 PM 5.7°F-14.6°C -2.6°F-19.2°C 68% 1.2 mph N1.9 kmh N 3.5 mph5.6 kmh 30.24 in1024.0 mb - 0.00 in0.0 mm 0.00 in0.0 mm
09:50 PM 5.4°F-14.8°C -2.9°F-19.4°C 68% Calm Calm 3.5 mph5.6 kmh 30.24 in1024.0 mb - 0.00 in0.0 mm 0.00 in0.0 mm
10:00 PM 5.3°F-14.8°C -3.0°F-19.4°C 68% 1.2 mph NW1.9 kmh NW 3.5 mph5.6 kmh 30.25 in1024.4 mb - 0.00 in0.0 mm 0.00 in0.0 mm
10:10 PM 5.0°F-15.0°C -3.2°F-19.6°C 68% 2.3 mph N3.7 kmh N 10.4 mph16.7 kmh 30.25 in1024.4 mb - 0.00 in0.0 mm 0.00 in0.0 mm
10:20 PM 4.7°F-15.2°C -3.6°F-19.8°C 68% Calm Calm 6.9 mph11.1 kmh 30.26 in1024.7 mb - 0.00 in0.0 mm 0.00 in0.0 mm
10:30 PM 4.0°F-15.6°C -4.2°F-20.1°C 68% 1.2 mph WNW1.9 kmh WNW 3.5 mph5.6 kmh 30.27 in1025.1 mb - 0.00 in0.0 mm 0.00 in0.0 mm
10:40 PM 3.4°F-15.9°C -4.8°F-20.4°C 68% 4.6 mph NNW7.4 kmh NNW 11.5 mph18.5 kmh 30.27 in1025.1 mb - 0.00 in0.0 mm 0.00 in0.0 mm
10:50 PM 3.0°F-16.1°C -5.2°F-20.7°C 68% 2.3 mph NNW3.7 kmh NNW 5.8 mph9.3 kmh 30.29 in1025.7 mb - 0.00 in0.0 mm 0.00 in0.0 mm
11:00 PM 2.6°F-16.3°C -5.3°F-20.7°C 69% 4.6 mph NW7.4 kmh NW 5.8 mph9.3 kmh 30.29 in1025.7 mb - 0.00 in0.0 mm 0.00 in0.0 mm
11:10 PM 2.3°F-16.5°C -5.9°F-21.1°C 68% 1.2 mph N1.9 kmh N 3.5 mph5.6 kmh 30.30 in1026.1 mb - 0.00 in0.0 mm 0.00 in0.0 mm
11:20 PM 1.9°F-16.7°C -6.3°F-21.3°C 68% 1.2 mph NW1.9 kmh NW 3.5 mph5.6 kmh 30.30 in1026.1 mb - 0.00 in0.0 mm 0.00 in0.0 mm
11:30 PM 1.5°F-16.9°C -6.7°F-21.5°C 68% 3.5 mph NW5.6 kmh NW 8.1 mph13.0 kmh 30.31 in1026.4 mb - 0.00 in0.0 mm 0.00 in0.0 mm
11:40 PM 1.1°F-17.2°C -7.0°F-21.7°C 68% 2.3 mph NW3.7 kmh NW 6.9 mph11.1 kmh 30.31 in1026.4 mb - 0.00 in0.0 mm 0.00 in0.0 mm
11:50 PM 0.8°F-17.3°C -7.3°F-21.8°C 68% 3.5 mph NNW5.6 kmh NNW 4.6 mph7.4 kmh 30.32 in1026.8 mb - 0.00 in0.0 mm 0.00 in0.0 mm